Time;durP1;ratioP1;P1;durP2;ratioP2;P2;SDS_P1;SDS_P2;PMS_P1;PMS_P2;Temp;Humidity;BMP_temperature;BMP_pressure;BME280_temperature;BME280_humidity;BME280_pressure;Samples;Min_cycle;Max_cycle;Signal;HPM_P1;HPM_P2
2021/09/08 00:00:32;;;;;;;7.68;6.00;;;;;;;17.30;80.22;102075.34;5071062;28;20103;-38
2021/09/08 00:03:00;;;;;;;8.38;6.30;;;;;;;17.29;80.40;102074.50;5070432;28;20044;-38
2021/09/08 00:05:30;;;;;;;9.55;7.35;;;;;;;17.28;80.67;102081.28;5069633;28;20406;-33
2021/09/08 00:07:58;;;;;;;8.73;6.22;;;;;;;17.29;80.48;102085.78;5070910;28;20088;-38
2021/09/08 00:10:26;;;;;;;7.60;5.95;;;;;;;17.29;80.65;102082.13;5070308;28;20113;-34
2021/09/08 00:12:56;;;;;;;8.02;6.03;;;;;;;17.27;80.88;102081.59;5070645;28;20544;-39
2021/09/08 00:15:23;;;;;;;6.95;5.55;;;;;;;17.25;80.64;102083.91;5070814;28;20126;-40
2021/09/08 00:17:51;;;;;;;7.43;5.63;;;;;;;17.22;80.71;102074.91;5070175;28;20040;-39
2021/09/08 00:20:19;;;;;;;8.38;6.28;;;;;;;17.20;80.72;102076.38;5070435;28;20449;-39
2021/09/08 00:22:47;;;;;;;7.38;5.70;;;;;;;17.18;80.75;102079.53;5070674;28;20110;-36
2021/09/08 00:25:16;;;;;;;7.25;5.70;;;;;;;17.14;80.89;102072.84;5070077;28;20046;-36
2021/09/08 00:27:44;;;;;;;7.70;5.60;;;;;;;17.12;80.99;102068.66;5070888;28;20076;-43
2021/09/08 00:30:14;;;;;;;7.22;5.47;;;;;;;17.12;81.01;102060.19;5069760;28;20471;-37
2021/09/08 00:32:43;;;;;;;6.20;4.78;;;;;;;17.08;81.07;102064.78;5070990;28;20072;-36
2021/09/08 00:35:13;;;;;;;6.93;5.32;;;;;;;17.06;81.21;102055.81;5070249;28;20040;-39
2021/09/08 00:37:41;;;;;;;8.57;6.70;;;;;;;17.03;81.39;102060.09;5059191;28;20135;-37
2021/09/08 00:40:11;;;;;;;7.80;5.80;;;;;;;17.01;81.51;102053.91;5070334;28;20510;-38
2021/09/08 00:42:41;;;;;;;7.45;5.78;;;;;;;16.98;81.60;102056.56;5070753;28;20044;-40
2021/09/08 00:45:12;;;;;;;9.05;6.63;;;;;;;16.96;81.71;102056.88;5069743;28;20048;-41
2021/09/08 00:47:42;;;;;;;6.68;5.40;;;;;;;16.97;81.91;102049.25;5070472;28;20147;-41
2021/09/08 00:50:11;;;;;;;7.53;5.47;;;;;;;16.94;82.09;102047.03;5070438;28;20090;-42
2021/09/08 00:52:42;;;;;;;8.02;6.38;;;;;;;16.91;82.30;102044.84;5070131;28;20106;-34
2021/09/08 00:55:12;;;;;;;10.30;7.72;;;;;;;16.91;82.33;102044.84;5070491;28;20102;-39
2021/09/08 00:57:41;;;;;;;12.40;9.70;;;;;;;16.88;82.26;102040.66;5070621;28;20048;-36
2021/09/08 01:00:10;;;;;;;9.93;7.38;;;;;;;16.87;82.58;102039.84;5073518;28;20053;-40
2021/09/08 01:02:42;;;;;;;8.68;6.32;;;;;;;16.87;82.47;102039.84;5073901;28;20481;-38
2021/09/08 01:05:11;;;;;;;9.00;6.82;;;;;;;16.87;82.95;102039.00;5074145;28;20392;-38
2021/09/08 01:07:39;;;;;;;11.10;7.85;;;;;;;16.88;83.18;102029.38;5072921;28;20048;-34
2021/09/08 01:10:10;;;;;;;11.05;8.50;;;;;;;16.86;83.46;102035.34;5074108;28;20499;-37
2021/09/08 01:12:42;;;;;;;10.00;7.75;;;;;;;16.85;83.86;102030.84;5073096;28;20381;-38
2021/09/08 01:15:13;;;;;;;8.63;6.50;;;;;;;16.86;83.69;102032.53;5074315;28;20070;-40
2021/09/08 01:17:44;;;;;;;9.93;6.32;;;;;;;16.85;83.74;102044.94;5073480;28;20127;-35
2021/09/08 01:20:13;;;;;;;8.02;5.75;;;;;;;16.83;83.58;102044.41;5073431;28;20075;-33
2021/09/08 01:22:47;;;;;;;7.40;5.25;;;;;;;16.81;83.53;102026.16;5073584;28;20144;-33
2021/09/08 01:25:17;;;;;;;7.70;5.88;;;;;;;16.79;83.28;102040.56;5073727;28;20053;-37
2021/09/08 01:27:45;;;;;;;7.32;5.55;;;;;;;16.76;83.28;102044.03;5072792;28;20434;-43
2021/09/08 01:30:16;;;;;;;7.70;5.55;;;;;;;16.73;83.52;102033.38;5073850;28;20056;-39
2021/09/08 01:32:44;;;;;;;6.97;5.38;;;;;;;16.69;83.46;102034.28;5073107;28;20088;-36
2021/09/08 01:35:12;;;;;;;8.07;5.63;;;;;;;16.66;83.55;102038.56;5073126;28;20051;-37
2021/09/08 01:37:40;;;;;;;7.75;5.72;;;;;;;16.64;83.54;102028.75;5072900;28;20075;-33
2021/09/08 01:40:10;;;;;;;6.70;5.18;;;;;;;16.62;83.77;102028.19;5073783;28;20076;-39
2021/09/08 01:42:38;;;;;;;6.78;5.75;;;;;;;16.59;84.01;102024.00;5072634;28;20053;-39
2021/09/08 01:45:07;;;;;;;7.30;5.40;;;;;;;16.56;83.98;102027.47;5073556;28;20052;-37
2021/09/08 01:47:35;;;;;;;8.35;6.32;;;;;;;16.54;84.06;102024.97;5072221;28;20060;-39
2021/09/08 01:50:03;;;;;;;9.90;7.68;;;;;;;16.51;84.30;102025.59;5061886;28;20080;-39
2021/09/08 01:52:31;;;;;;;9.80;7.07;;;;;;;16.50;84.47;102023.91;5072944;28;20051;-34
2021/09/08 01:54:59;;;;;;;9.02;6.82;;;;;;;16.49;84.53;102019.41;5072767;28;20060;-40
2021/09/08 01:57:28;;;;;;;8.82;6.50;;;;;;;16.49;84.58;102021.41;5072934;28;20131;-36
2021/09/08 01:59:56;;;;;;;10.82;7.65;;;;;;;16.48;84.68;102016.91;5072951;28;20491;-34
2021/09/08 02:02:25;;;;;;;11.75;8.73;;;;;;;16.47;84.80;102023.69;5072351;28;20525;-36
2021/09/08 02:04:53;;;;;;;13.68;10.55;;;;;;;16.47;84.80;102018.06;5073206;28;20510;-38
2021/09/08 02:07:21;;;;;;;9.93;7.05;;;;;;;16.47;85.20;102020.88;5072768;28;20049;-39
2021/09/08 02:09:49;;;;;;;10.40;7.10;;;;;;;16.46;85.17;102016.38;5069734;28;20052;-39
2021/09/08 02:12:16;;;;;;;14.82;10.90;;;;;;;16.45;85.29;102018.38;5072924;28;20049;-37
2021/09/08 02:14:46;;;;;;;10.63;7.43;;;;;;;16.46;85.74;102016.38;5072535;28;20059;-42
2021/09/08 02:17:14;;;;;;;11.50;8.95;;;;;;;16.46;85.75;102019.19;5072050;28;20461;-41
2021/09/08 02:19:41;;;;;;;8.70;6.63;;;;;;;16.43;85.68;102031.09;5072481;28;20044;-38
2021/09/08 02:22:09;;;;;;;8.90;6.18;;;;;;;16.40;85.69;102015.63;5072730;28;20488;-37
2021/09/08 02:24:37;;;;;;;7.35;5.28;;;;;;;16.38;85.47;102017.13;5071671;28;20048;-40
2021/09/08 02:27:05;;;;;;;7.30;5.20;;;;;;;16.36;85.29;102017.44;5072806;28;20052;-40
2021/09/08 02:29:33;;;;;;;7.18;5.28;;;;;;;16.31;85.41;102014.69;5072196;28;20051;-35
2021/09/08 02:32:03;;;;;;;7.15;5.13;;;;;;;16.29;85.28;102016.16;5071834;28;20090;-39
2021/09/08 02:34:31;;;;;;;7.32;5.68;;;;;;;16.25;85.15;102015.09;5072044;28;20048;-37
2021/09/08 02:37:00;;;;;;;7.47;5.78;;;;;;;16.22;85.35;102012.88;5071948;28;20056;-41
2021/09/08 02:39:27;;;;;;;7.60;4.93;;;;;;;16.19;85.48;102018.00;5072020;28;20052;-34
2021/09/08 02:41:55;;;;;;;6.78;5.10;;;;;;;16.15;85.56;102011.31;5072167;28;20044;-38
2021/09/08 02:44:23;;;;;;;6.35;4.68;;;;;;;16.13;85.44;102016.44;5071263;28;20044;-38
2021/09/08 02:46:51;;;;;;;7.22;5.40;;;;;;;16.10;85.63;102017.03;5072303;28;20139;-40
2021/09/08 02:49:20;;;;;;;8.35;5.70;;;;;;;16.06;85.82;102007.53;5071921;28;20057;-40
2021/09/08 02:51:48;;;;;;;7.93;5.57;;;;;;;16.02;86.24;102003.66;5071676;28;20102;-34
2021/09/08 02:54:16;;;;;;;6.75;5.22;;;;;;;15.99;86.19;102003.44;5071855;28;20055;-35
2021/09/08 02:56:44;;;;;;;7.45;5.57;;;;;;;15.97;86.10;101998.13;5070730;28;20044;-34
2021/09/08 02:59:11;;;;;;;8.90;5.65;;;;;;;15.94;86.02;102007.19;5071333;28;20144;-36
2021/09/08 03:01:39;;;;;;;7.72;5.10;;;;;;;15.91;86.07;101998.53;5071690;28;20056;-36
2021/09/08 03:04:07;;;;;;;8.18;5.78;;;;;;;15.88;86.16;101999.13;5070604;28;20072;-35
2021/09/08 03:06:37;;;;;;;6.97;5.18;;;;;;;15.85;86.15;101995.78;5070648;28;20047;-36
2021/09/08 03:09:05;;;;;;;8.48;5.85;;;;;;;15.82;86.04;102006.81;5072015;28;20041;-34
2021/09/08 03:11:32;;;;;;;7.70;5.30;;;;;;;15.80;86.05;102004.31;5071447;28;20040;-38
2021/09/08 03:14:00;;;;;;;7.57;4.97;;;;;;;15.78;86.08;102000.16;5071210;28;20056;-39
2021/09/08 03:16:29;;;;;;;7.25;5.32;;;;;;;15.76;85.94;101996.81;5071256;28;20059;-39
2021/09/08 03:18:57;;;;;;;8.02;5.63;;;;;;;15.74;85.81;102001.91;5071037;28;20388;-39
2021/09/08 03:21:25;;;;;;;7.05;5.32;;;;;;;15.71;86.02;101994.06;5070847;28;20402;-34
2021/09/08 03:23:55;;;;;;;7.38;4.95;;;;;;;15.68;86.22;101994.66;5071409;28;20063;-38
2021/09/08 03:26:24;;;;;;;9.38;6.97;;;;;;;15.64;86.27;101999.22;5070899;28;20047;-39
2021/09/08 03:28:52;;;;;;;7.70;5.70;;;;;;;15.62;86.17;101993.06;5071653;28;20083;-35
2021/09/08 03:31:20;;;;;;;11.38;7.40;;;;;;;15.59;86.37;101990.91;5070915;28;20049;-36
2021/09/08 03:33:48;;;;;;;9.02;5.45;;;;;;;15.57;86.50;101996.00;5070598;28;20064;-38
2021/09/08 03:36:15;;;;;;;8.57;6.15;;;;;;;15.55;86.52;101995.44;5070807;28;20053;-34
2021/09/08 03:38:43;;;;;;;9.40;6.40;;;;;;;15.51;86.71;101992.38;5071096;28;20563;-35
2021/09/08 03:41:12;;;;;;;8.02;5.75;;;;;;;15.50;86.87;101987.88;5070791;28;20044;-38
2021/09/08 03:43:40;;;;;;;7.15;5.38;;;;;;;15.47;86.78;101992.16;5071336;28;20139;-38
2021/09/08 03:46:08;;;;;;;8.35;5.70;;;;;;;15.45;86.75;101980.34;5071028;28;20048;-36
2021/09/08 03:48:36;;;;;;;8.82;6.40;;;;;;;15.45;86.76;101991.59;5066872;28;20426;-35
2021/09/08 03:51:05;;;;;;;11.02;8.15;;;;;;;15.45;87.20;101985.16;5070943;28;20074;-39
2021/09/08 03:53:32;;;;;;;10.88;7.55;;;;;;;15.43;87.20;101979.81;5070710;28;20040;-37
2021/09/08 03:56:00;;;;;;;9.77;7.25;;;;;;;15.42;87.34;101980.13;5070627;28;20068;-40
2021/09/08 03:58:29;;;;;;;9.00;6.10;;;;;;;15.41;87.46;101976.47;5086430;28;20408;-37
2021/09/08 04:00:57;;;;;;;8.90;6.45;;;;;;;15.39;87.48;101972.28;5071105;28;20136;-36
2021/09/08 04:03:26;;;;;;;8.85;6.25;;;;;;;15.38;87.55;101971.50;5068939;28;20048;-41
2021/09/08 04:05:55;;;;;;;8.88;6.75;;;;;;;15.39;87.47;101973.13;5071165;28;20714;-40
2021/09/08 04:08:23;;;;;;;8.05;6.18;;;;;;;15.39;87.56;101972.28;5069987;28;20059;-37
2021/09/08 04:10:51;;;;;;;7.60;5.25;;;;;;;15.38;87.71;101967.84;5071056;28;20468;-39
2021/09/08 04:13:18;;;;;;;9.07;6.30;;;;;;;15.37;87.71;101960.53;5070447;28;20483;-35
2021/09/08 04:15:48;;;;;;;7.45;5.50;;;;;;;15.37;87.85;101960.53;5071106;28;20180;-36
2021/09/08 04:18:16;;;;;;;7.32;5.15;;;;;;;15.35;87.95;101965.63;5070529;28;20098;-38
2021/09/08 04:20:44;;;;;;;8.30;6.20;;;;;;;15.34;87.88;101961.16;5070932;28;20080;-39
2021/09/08 04:23:11;;;;;;;7.53;5.65;;;;;;;15.32;87.79;101961.44;5069821;28;20076;-39
2021/09/08 04:25:39;;;;;;;7.25;5.35;;;;;;;15.31;88.16;101956.97;5070540;28;20086;-39
2021/09/08 04:28:07;;;;;;;7.53;5.43;;;;;;;15.29;88.17;101956.44;5070483;28;20068;-38
2021/09/08 04:30:35;;;;;;;7.78;5.97;;;;;;;15.29;88.14;101953.63;5070023;28;20444;-40
2021/09/08 04:33:04;;;;;;;7.63;5.55;;;;;;;15.27;88.35;101953.06;5073349;28;20106;-39
2021/09/08 04:35:32;;;;;;;7.90;5.63;;;;;;;15.26;88.44;101945.78;5073601;28;20517;-34
2021/09/08 04:37:59;;;;;;;10.88;8.10;;;;;;;15.24;88.37;101948.06;5073685;28;20048;-35
2021/09/08 04:40:27;;;;;;;8.70;6.15;;;;;;;15.23;88.58;101943.56;5071502;28;20047;-38
2021/09/08 04:42:55;;;;;;;7.55;5.75;;;;;;;15.23;88.44;101937.94;5071357;28;20461;-35
2021/09/08 04:45:23;;;;;;;8.30;5.68;;;;;;;15.22;88.50;101935.44;5071810;28;20041;-33
2021/09/08 04:47:51;;;;;;;8.90;6.22;;;;;;;15.21;88.61;101928.97;5072237;28;20709;-39
2021/09/08 04:50:20;;;;;;;8.93;6.30;;;;;;;15.22;88.60;101943.88;5072154;28;20049;-36
2021/09/08 04:52:48;;;;;;;7.88;5.90;;;;;;;15.20;88.59;101934.91;5072059;28;20048;-40
2021/09/08 04:55:16;;;;;;;9.15;6.57;;;;;;;15.19;88.75;101934.06;5073424;28;20056;-37
2021/09/08 04:57:44;;;;;;;15.40;11.07;;;;;;;15.19;88.79;101928.44;5073510;28;20454;-34
2021/09/08 05:00:12;;;;;;;8.65;6.82;;;;;;;15.21;88.79;101931.78;5073913;28;20063;-34
2021/09/08 05:02:40;;;;;;;11.05;8.38;;;;;;;15.23;89.15;101932.31;5074254;28;20389;-39
2021/09/08 05:05:09;;;;;;;10.93;7.85;;;;;;;15.23;88.97;101926.69;5073240;28;20056;-38
2021/09/08 05:07:39;;;;;;;9.32;7.05;;;;;;;15.25;89.37;101929.22;5073925;28;20052;-37
2021/09/08 05:10:08;;;;;;;10.10;6.78;;;;;;;15.25;89.46;101927.22;5073377;28;20123;-36
2021/09/08 05:12:36;;;;;;;9.40;6.68;;;;;;;15.27;89.45;101927.78;5073531;28;20147;-35
2021/09/08 05:15:05;;;;;;;9.77;7.03;;;;;;;15.28;89.43;101935.06;5073251;28;20044;-38
2021/09/08 05:17:33;;;;;;;7.93;6.15;;;;;;;15.28;89.50;101935.06;5074210;28;20127;-36
2021/09/08 05:20:02;;;;;;;10.40;8.10;;;;;;;15.27;89.69;101930.59;5072540;28;20055;-37
2021/09/08 05:22:30;;;;;;;7.82;6.30;;;;;;;15.28;89.56;101928.59;5073718;28;20507;-37
2021/09/08 05:24:59;;;;;;;9.38;7.05;;;;;;;15.31;89.59;101928.84;5073529;28;20098;-37
2021/09/08 05:27:27;;;;;;;14.23;9.80;;;;;;;15.33;90.08;101920.09;5073470;28;20139;-39
2021/09/08 05:29:55;;;;;;;12.30;8.30;;;;;;;15.36;90.44;101919.50;5073390;28;20131;-36
2021/09/08 05:32:23;;;;;;;11.57;8.35;;;;;;;15.40;91.15;101915.72;5073618;28;20463;-38
2021/09/08 05:34:50;;;;;;;11.15;7.63;;;;;;;15.45;91.16;101924.09;5072576;28;20568;-37
2021/09/08 05:37:18;;;;;;;10.52;7.65;;;;;;;15.49;91.24;101915.88;5073336;28;20094;-35
2021/09/08 05:39:46;;;;;;;16.63;11.25;;;;;;;15.54;91.48;101915.81;5072907;28;20040;-34
2021/09/08 05:42:15;;;;;;;11.45;8.05;;;;;;;15.60;91.85;101913.75;5072440;28;20135;-36
2021/09/08 05:44:43;;;;;;;10.90;7.20;;;;;;;15.64;91.95;101917.63;5072415;28;20087;-35
2021/09/08 05:47:11;;;;;;;12.15;8.93;;;;;;;15.67;92.00;101919.84;5072617;28;20119;-37
2021/09/08 05:49:39;;;;;;;10.68;7.47;;;;;;;15.71;91.94;101912.47;5072922;28;20056;-37
2021/09/08 05:52:09;;;;;;;10.95;7.97;;;;;;;15.76;92.50;101912.38;5073349;28;20052;-39
2021/09/08 05:54:36;;;;;;;12.30;8.52;;;;;;;15.82;92.50;101916.75;5072570;28;20079;-34
2021/09/08 05:57:05;;;;;;;10.38;7.68;;;;;;;15.90;93.04;101930.13;5072789;28;20076;-36
2021/09/08 05:59:34;;;;;;;13.55;8.32;;;;;;;15.95;93.33;101918.78;5073196;28;20098;-36
2021/09/08 06:02:02;;;;;;;15.43;10.48;;;;;;;16.01;93.50;101916.69;5070396;28;20728;-37
2021/09/08 06:04:30;;;;;;;11.70;8.55;;;;;;;16.08;93.63;101914.31;5070138;28;20049;-35
2021/09/08 06:06:58;;;;;;;11.80;8.48;;;;;;;16.14;94.22;101916.72;5069374;28;20342;-34
2021/09/08 06:09:26;;;;;;;12.45;8.82;;;;;;;16.22;94.46;101917.13;5069835;28;20045;-40
2021/09/08 06:11:56;;;;;;;18.75;11.75;;;;;;;16.32;94.79;101922.56;5069933;28;20036;-36
2021/09/08 06:14:24;;;;;;;13.35;9.35;;;;;;;16.37;94.87;101928.13;5072345;28;20400;-36
2021/09/08 06:16:54;;;;;;;14.23;10.07;;;;;;;16.43;95.45;101907.13;5071000;28;20036;-34
2021/09/08 06:19:21;;;;;;;15.10;10.27;;;;;;;16.49;95.68;101912.34;5071713;28;20122;-34
2021/09/08 06:21:49;;;;;;;13.63;9.52;;;;;;;16.57;95.87;101904.31;5071149;28;20191;-36
2021/09/08 06:24:18;;;;;;;19.08;11.43;;;;;;;16.65;96.41;101912.88;5071843;28;20053;-39
2021/09/08 06:26:46;;;;;;;11.38;8.90;;;;;;;16.73;96.54;101911.31;5071666;28;20044;-36
2021/09/08 06:29:14;;;;;;;12.23;8.65;;;;;;;16.79;96.60;101905.25;5071202;28;20416;-37
2021/09/08 06:31:42;;;;;;;15.80;10.88;;;;;;;16.88;96.92;101905.34;5071607;28;20048;-39
2021/09/08 06:34:11;;;;;;;15.35;10.25;;;;;;;16.95;96.94;101897.28;5071618;28;20098;-36
2021/09/08 06:36:39;;;;;;;16.45;10.43;;;;;;;17.05;97.18;101899.84;5071040;28;20056;-38
2021/09/08 06:39:07;;;;;;;17.48;12.77;;;;;;;17.14;97.39;101897.97;5070244;28;20457;-37
2021/09/08 06:41:35;;;;;;;13.35;9.48;;;;;;;17.25;97.58;101895.72;5071442;28;20080;-35
2021/09/08 06:44:03;;;;;;;13.52;9.23;;;;;;;17.34;97.57;101891.00;5071266;28;20056;-37
2021/09/08 06:46:30;;;;;;;16.52;11.73;;;;;;;17.47;97.56;101898.56;5071584;28;20052;-34
2021/09/08 06:48:58;;;;;;;12.07;9.02;;;;;;;17.65;97.41;101891.06;5070836;28;20211;-37
2021/09/08 06:51:28;;;;;;;13.82;9.82;;;;;;;17.90;97.36;101898.03;5051075;28;20045;-37
2021/09/08 06:53:56;;;;;;;15.45;11.10;;;;;;;18.25;96.55;101899.03;5069957;28;20491;-41
2021/09/08 06:56:23;;;;;;;13.57;9.40;;;;;;;18.71;95.37;101890.09;5068421;28;20056;-36
2021/09/08 06:58:53;;;;;;;13.57;9.93;;;;;;;19.27;94.06;101893.97;5070529;28;20500;-38
2021/09/08 07:01:21;;;;;;;13.60;10.05;;;;;;;19.82;91.01;101890.44;5070593;28;20041;-34
2021/09/08 07:03:49;;;;;;;14.52;10.98;;;;;;;20.35;89.01;101884.25;5071041;28;20490;-36
2021/09/08 07:06:20;;;;;;;12.88;9.73;;;;;;;20.94;86.03;101882.28;5071179;28;20438;-39
2021/09/08 07:08:50;;;;;;;15.40;11.18;;;;;;;21.42;83.62;101869.53;5070532;28;20076;-39
2021/09/08 07:11:18;;;;;;;14.60;10.60;;;;;;;21.80;80.56;101872.16;5070131;28;20048;-35
2021/09/08 07:13:46;;;;;;;12.52;10.25;;;;;;;22.15;78.66;101871.78;5071245;28;20474;-37
2021/09/08 07:16:16;;;;;;;13.15;9.20;;;;;;;22.57;76.17;101875.25;5071562;28;20079;-39
2021/09/08 07:18:44;;;;;;;13.48;10.40;;;;;;;22.90;73.83;101863.72;5070644;28;20075;-42
2021/09/08 07:21:12;;;;;;;14.43;10.05;;;;;;;23.13;72.21;101864.03;5071368;28;20133;-38
2021/09/08 07:23:40;;;;;;;10.32;8.20;;;;;;;23.46;71.57;101864.63;5071331;28;20068;-36
2021/09/08 07:26:11;;;;;;;12.23;9.27;;;;;;;23.95;69.37;101862.38;5071018;28;20048;-40
2021/09/08 07:28:39;;;;;;;13.35;10.45;;;;;;;24.35;67.03;101864.25;5070885;28;20131;-39
2021/09/08 07:31:07;;;;;;;12.90;9.63;;;;;;;24.61;65.41;101855.94;5071326;28;20041;-42
2021/09/08 07:33:35;;;;;;;12.43;9.93;;;;;;;24.84;63.90;101858.91;5070306;28;20463;-39
2021/09/08 07:36:07;;;;;;;14.70;10.57;;;;;;;24.91;62.84;101855.41;5070699;28;20051;-39
2021/09/08 07:38:34;;;;;;;11.45;8.55;;;;;;;25.04;63.33;101857.78;5071226;28;20037;-39
2021/09/08 07:41:03;;;;;;;14.88;9.70;;;;;;;25.33;61.94;101866.97;5070602;28;20059;-36
2021/09/08 07:43:32;;;;;;;11.20;8.05;;;;;;;25.64;61.05;101863.16;5071042;28;20080;-39
2021/09/08 07:46:00;;;;;;;10.52;7.82;;;;;;;25.91;60.36;101859.19;5068349;28;20044;-37
2021/09/08 07:48:27;;;;;;;11.10;7.85;;;;;;;26.21;59.55;101853.59;5070469;28;20565;-39
2021/09/08 07:50:58;;;;;;;9.70;8.05;;;;;;;26.62;58.63;101859.63;5070815;28;20079;-37
2021/09/08 07:53:26;;;;;;;10.70;8.30;;;;;;;27.10;57.47;101857.94;5070524;28;20044;-40
2021/09/08 07:55:53;;;;;;;9.23;7.68;;;;;;;27.52;56.37;101857.66;5070712;28;20075;-37
2021/09/08 07:58:21;;;;;;;11.25;8.50;;;;;;;27.90;54.24;101855.66;5071026;28;20491;-35
2021/09/08 08:00:50;;;;;;;9.77;7.78;;;;;;;28.22;53.43;101847.34;5070102;28;20052;-34
2021/09/08 08:03:21;;;;;;;11.73;8.40;;;;;;;28.51;52.22;101855.00;5070797;28;20056;-41
2021/09/08 08:05:49;;;;;;;10.60;8.27;;;;;;;28.79;51.14;101843.69;5070580;28;20402;-40
2021/09/08 08:08:18;;;;;;;9.13;7.03;;;;;;;29.06;50.77;101849.22;5069772;28;20102;-33
2021/09/08 08:10:47;;;;;;;12.90;8.60;;;;;;;29.53;49.71;101848.25;5070615;28;20052;-37
2021/09/08 08:13:14;;;;;;;10.73;8.90;;;;;;;29.80;47.75;101846.66;5071058;28;20123;-40
2021/09/08 08:15:42;;;;;;;10.18;8.65;;;;;;;29.91;46.93;101843.00;5069834;28;20481;-44
2021/09/08 08:18:13;;;;;;;11.10;7.55;;;;;;;30.07;46.91;101837.69;5071004;28;20067;-41
2021/09/08 08:20:41;;;;;;;12.25;8.00;;;;;;;30.18;46.19;101850.03;5070612;28;20132;-38
2021/09/08 08:23:09;;;;;;;12.95;9.55;;;;;;;30.17;45.03;101842.66;5070145;28;20140;-44
2021/09/08 08:25:37;;;;;;;10.07;8.10;;;;;;;29.99;45.14;101836.84;5070250;28;20590;-41
2021/09/08 08:28:05;;;;;;;9.48;7.55;;;;;;;30.00;45.31;101831.94;5070598;28;20097;-36
2021/09/08 08:30:35;;;;;;;8.98;6.93;;;;;;;30.25;45.71;101838.53;5069872;28;20047;-38
2021/09/08 08:33:05;;;;;;;9.63;7.95;;;;;;;30.57;44.28;101832.81;5070900;28;20076;-40
2021/09/08 08:35:34;;;;;;;9.32;7.95;;;;;;;30.77;44.54;101838.94;5069887;28;20140;-40
2021/09/08 08:38:02;;;;;;;12.35;9.40;;;;;;;30.99;43.33;101834.75;5070017;28;20040;-38
2021/09/08 08:40:31;;;;;;;11.13;8.82;;;;;;;31.23;42.36;101838.00;5070527;28;20132;-40
2021/09/08 08:43:00;;;;;;;10.90;9.00;;;;;;;31.40;41.31;101840.81;5069748;28;20155;-33
2021/09/08 08:45:28;;;;;;;11.13;8.18;;;;;;;31.46;42.02;101844.09;5070539;28;20127;-36
2021/09/08 08:47:58;;;;;;;11.57;8.35;;;;;;;31.64;41.37;101836.16;5070119;28;20060;-35
2021/09/08 08:50:26;;;;;;;11.80;8.40;;;;;;;31.91;40.64;101835.63;5050339;28;20123;-42
2021/09/08 08:52:57;;;;;;;10.40;8.15;;;;;;;32.10;40.30;101837.94;5069305;28;20052;-40
2021/09/08 08:55:26;;;;;;;10.02;7.68;;;;;;;32.35;39.93;101841.50;5070624;28;20053;-40
2021/09/08 08:57:54;;;;;;;12.63;9.60;;;;;;;32.65;39.23;101831.28;5069494;28;20097;-38
2021/09/08 09:00:23;;;;;;;9.18;7.30;;;;;;;32.65;38.53;101831.28;5070480;28;20079;-40
2021/09/08 09:02:52;;;;;;;9.48;7.28;;;;;;;32.62;38.63;101830.06;5069983;28;20161;-36
2021/09/08 09:05:35;;;;;;;10.38;8.00;;;;;;;32.46;36.74;101827.75;5069772;28;20097;-43
2021/09/08 09:08:07;;;;;;;12.15;8.77;;;;;;;32.35;38.21;101824.16;5069584;28;20079;-37
2021/09/08 09:10:36;;;;;;;10.20;8.38;;;;;;;32.25;38.21;101821.34;5070629;28;20048;-42
2021/09/08 09:13:05;;;;;;;11.20;8.15;;;;;;;32.02;38.09;101828.50;5069858;28;20502;-40
2021/09/08 09:15:33;;;;;;;11.60;9.02;;;;;;;31.82;38.69;101825.34;5070423;28;20136;-41
2021/09/08 09:18:00;;;;;;;9.43;7.82;;;;;;;31.75;38.64;101821.69;5069129;28;20449;-36
2021/09/08 09:20:30;;;;;;;9.02;8.07;;;;;;;31.81;38.42;101823.69;5073728;28;20548;-40
2021/09/08 09:23:00;;;;;;;12.57;8.13;;;;;;;31.93;38.02;101821.56;5073051;28;20459;-40
2021/09/08 09:25:33;;;;;;;9.63;7.80;;;;;;;32.09;37.39;101821.84;5073277;28;20048;-34
2021/09/08 09:28:03;;;;;;;11.13;8.15;;;;;;;31.97;37.37;101816.59;5073403;28;20119;-34
2021/09/08 09:30:33;;;;;;;10.60;8.43;;;;;;;31.84;37.15;101814.19;5073717;28;20048;-37
2021/09/08 09:33:28;;;;;;;8.73;7.65;;;;;;;31.83;37.58;101817.50;5072699;28;20081;-42
2021/09/08 09:35:58;;;;;;;11.15;8.45;;;;;;;32.03;37.82;101809.09;5073683;28;20056;-38
2021/09/08 09:38:27;;;;;;;8.63;7.35;;;;;;;32.34;37.22;101813.84;5073233;28;20052;-38
2021/09/08 09:40:56;;;;;;;8.43;7.20;;;;;;;32.66;35.46;101804.03;5072776;28;20517;-39
2021/09/08 09:43:30;;;;;;;10.68;8.95;;;;;;;32.52;35.36;101819.44;5073204;28;20131;-41
2021/09/08 09:45:57;;;;;;;9.82;7.82;;;;;;;32.32;35.74;101810.56;5061927;28;20051;-42
2021/09/08 09:48:29;;;;;;;10.27;8.30;;;;;;;32.19;35.51;101806.50;5073225;28;20045;-36
2021/09/08 09:50:57;;;;;;;9.48;7.78;;;;;;;31.94;35.71;101806.72;5073315;28;20050;-41
2021/09/08 09:53:29;;;;;;;10.85;8.60;;;;;;;31.77;35.26;101807.66;5072138;28;20075;-34
2021/09/08 09:56:00;;;;;;;10.80;7.75;;;;;;;31.98;35.51;101800.88;5072939;28;20056;-34
2021/09/08 09:58:28;;;;;;;8.60;7.15;;;;;;;31.95;35.62;101798.88;5072963;28;20491;-43
2021/09/08 10:00:56;;;;;;;11.10;7.70;;;;;;;31.99;35.88;101790.97;5072465;28;20045;-39
2021/09/08 10:03:24;;;;;;;11.30;8.45;;;;;;;32.01;34.93;101797.97;5072809;28;20044;-41
2021/09/08 10:05:53;;;;;;;8.88;6.97;;;;;;;31.94;35.77;101795.16;5073290;28;20051;-39
2021/09/08 10:08:25;;;;;;;8.27;7.38;;;;;;;32.25;35.40;101784.59;5072181;28;20071;-38
2021/09/08 10:10:55;;;;;;;12.02;8.18;;;;;;;32.23;34.49;101792.06;5071131;28;20084;-37
2021/09/08 10:13:29;;;;;;;11.55;9.13;;;;;;;31.95;34.14;101788.16;5072994;28;20059;-40
2021/09/08 10:15:59;;;;;;;9.43;8.05;;;;;;;31.58;34.86;101788.75;5072098;28;20056;-37
2021/09/08 10:18:30;;;;;;;8.90;7.40;;;;;;;31.35;35.38;101785.63;5073110;28;20139;-40
2021/09/08 10:21:02;;;;;;;11.10;9.15;;;;;;;31.18;35.27;101787.34;5071194;28;20127;-39
2021/09/08 10:23:33;;;;;;;10.52;8.30;;;;;;;31.10;35.61;101786.53;5052746;28;20472;-40
2021/09/08 10:26:11;;;;;;;10.80;9.13;;;;;;;31.25;34.98;101777.84;5071987;28;20054;-35
2021/09/08 10:28:42;;;;;;;8.32;6.93;;;;;;;31.36;35.14;101772.84;5071987;28;20072;-39
2021/09/08 10:31:12;;;;;;;9.00;7.15;;;;;;;31.50;35.19;101769.88;5072008;28;20139;-39
2021/09/08 10:33:42;;;;;;;8.85;7.32;;;;;;;31.77;34.79;101767.25;5088008;28;20044;-42
2021/09/08 10:36:11;;;;;;;8.45;7.57;;;;;;;31.99;34.14;101768.72;5071511;28;20084;-39
2021/09/08 10:38:39;;;;;;;10.35;7.72;;;;;;;32.16;34.13;101778.50;5072053;28;20478;-39
2021/09/08 10:41:09;;;;;;;7.75;6.78;;;;;;;32.32;33.57;101770.09;5071977;28;20056;-42
2021/09/08 10:43:38;;;;;;;9.45;8.32;;;;;;;32.35;33.55;101760.59;5071872;28;20057;-39
2021/09/08 10:46:09;;;;;;;8.07;6.22;;;;;;;32.37;33.47;101761.00;5071955;28;20041;-44
2021/09/08 10:48:40;;;;;;;8.02;7.20;;;;;;;32.64;32.88;101752.41;5072208;28;20080;-41
2021/09/08 10:51:09;;;;;;;9.27;7.30;;;;;;;32.64;32.92;101766.06;5071190;28;20078;-42
2021/09/08 10:53:38;;;;;;;7.60;6.40;;;;;;;32.37;32.82;101758.09;5071911;28;20403;-40
2021/09/08 10:56:08;;;;;;;8.48;7.18;;;;;;;32.34;33.32;101744.50;5071244;28;20048;-38
2021/09/08 10:58:57;;;;;;;7.07;5.70;;;;;;;32.52;32.01;101738.53;5072218;28;20087;-39
2021/09/08 11:01:28;;;;;;;10.02;7.47;;;;;;;32.51;31.83;101740.59;5071668;28;20048;-39
2021/09/08 11:03:57;;;;;;;7.47;6.38;;;;;;;32.33;32.51;101736.25;5071214;28;20056;-39
2021/09/08 11:06:44;;;;;;;8.05;5.70;;;;;;;32.35;32.77;101725.91;5071255;28;20048;-40
2021/09/08 11:09:15;;;;;;;9.02;6.82;;;;;;;32.35;32.51;101720.16;5072206;28;20407;-39
2021/09/08 11:11:53;;;;;;;8.90;6.30;;;;;;;32.47;32.16;101716.69;5070890;28;20562;-43
2021/09/08 11:14:22;;;;;;;6.38;5.47;;;;;;;32.58;32.49;101710.78;5071725;28;20132;-40
2021/09/08 11:16:51;;;;;;;7.53;6.50;;;;;;;32.60;32.17;101713.25;5071149;28;20071;-40
2021/09/08 11:19:20;;;;;;;8.38;6.07;;;;;;;32.53;31.61;101714.97;5071192;28;20060;-34
2021/09/08 11:21:48;;;;;;;7.47;6.32;;;;;;;32.37;31.76;101702.38;5070899;28;20135;-37
2021/09/08 11:24:17;;;;;;;7.80;6.20;;;;;;;32.34;31.98;101709.00;5070764;28;20584;-42
2021/09/08 11:26:45;;;;;;;9.10;6.97;;;;;;;32.19;31.83;101703.34;5071084;28;20056;-42
2021/09/08 11:29:15;;;;;;;7.78;6.15;;;;;;;32.11;32.40;101696.00;5071088;28;20473;-41